Time;durP1;ratioP1;P1;durP2;ratioP2;P2;SDS_P1;SDS_P2;PMS_P1;PMS_P2;Temp;Humidity;BMP_temperature;BMP_pressure;BME280_temperature;BME280_humidity;BME280_pressure;Samples;Min_cycle;Max_cycle;Signal;HPM_P1;HPM_P2
2021/08/11 00:00:57;;;;;;;5.85;4.53;;;;;;;17.37;92.93;96265.72;6068908;23;20006;-93
2021/08/11 00:03:22;;;;;;;5.07;4.00;;;;;;;17.19;91.94;96248.53;6068541;23;20013;-93
2021/08/11 00:05:48;;;;;;;6.10;4.15;;;;;;;16.87;91.13;96220.72;6068264;23;20003;-94
2021/08/11 00:08:14;;;;;;;5.10;4.43;;;;;;;17.44;90.95;96317.34;6068211;23;20011;-93
2021/08/11 00:10:39;;;;;;;7.30;4.40;;;;;;;17.08;92.33;96270.53;6068360;23;20007;-94
2021/08/11 00:13:05;;;;;;;7.68;4.75;;;;;;;17.03;91.92;96261.06;6067808;23;20010;-93
2021/08/11 00:15:31;;;;;;;7.43;4.22;;;;;;;16.87;92.22;96250.88;6067925;23;20062;-94
2021/08/11 00:17:57;;;;;;;6.72;4.63;;;;;;;17.08;92.26;96287.00;6069286;23;20013;-93
2021/08/11 00:20:24;;;;;;;5.57;4.95;;;;;;;17.15;91.40;96310.41;6070022;23;20030;-93
2021/08/11 00:22:51;;;;;;;7.47;5.05;;;;;;;16.86;93.03;96270.59;6070140;23;20011;-93
2021/08/11 00:25:16;;;;;;;7.40;5.00;;;;;;;16.93;92.45;96281.03;6070265;23;20007;-93
2021/08/11 00:27:41;;;;;;;6.10;5.50;;;;;;;16.99;92.11;96292.75;6070200;23;20339;-94
2021/08/11 00:30:07;;;;;;;7.13;4.68;;;;;;;16.76;91.64;96270.84;6070228;23;20006;-93
2021/08/11 00:32:33;;;;;;;10.07;5.28;;;;;;;16.76;91.03;96273.59;6070275;23;20043;-93
2021/08/11 00:34:59;;;;;;;5.90;5.10;;;;;;;16.53;92.44;96225.50;6045302;23;20011;-93
2021/08/11 00:37:24;;;;;;;8.48;5.05;;;;;;;16.75;92.03;96274.84;6046603;23;20003;-93
2021/08/11 00:39:50;;;;;;;6.10;4.82;;;;;;;16.68;92.28;96263.63;6046304;23;20014;-93
2021/08/11 00:42:16;;;;;;;8.20;5.10;;;;;;;16.83;92.62;96277.06;6045966;23;20007;-94
2021/08/11 00:44:41;;;;;;;6.65;5.20;;;;;;;16.96;93.20;96302.72;6045798;23;20061;-93
2021/08/11 00:47:07;;;;;;;6.45;4.85;;;;;;;16.90;92.63;96302.00;6046035;23;20010;-93
2021/08/11 00:49:33;;;;;;;7.72;4.53;;;;;;;16.57;93.94;96258.16;6045764;23;20014;-94
2021/08/11 00:51:59;;;;;;;5.63;4.70;;;;;;;16.67;93.65;96271.09;6046297;23;20432;-93
2021/08/11 00:54:26;;;;;;;6.47;5.05;;;;;;;16.81;93.63;96294.03;6047172;23;20061;-94
2021/08/11 00:56:53;;;;;;;6.53;5.03;;;;;;;16.61;92.70;96280.53;6069926;23;20010;-93
2021/08/11 00:59:21;;;;;;;6.65;4.75;;;;;;;16.48;92.97;96270.84;6045698;23;20021;-93
2021/08/11 01:01:50;;;;;;;6.97;4.60;;;;;;;16.24;93.79;96219.28;6045711;23;20014;-93
2021/08/11 01:04:20;;;;;;;6.57;4.93;;;;;;;16.57;92.91;96269.09;6045355;23;20010;-93
2021/08/11 01:06:45;;;;;;;7.20;5.00;;;;;;;16.60;92.37;96270.84;6069544;23;20097;-92
2021/08/11 01:09:14;;;;;;;11.93;5.15;;;;;;;16.81;90.77;96315.22;6045924;23;20038;-94
2021/08/11 01:11:44;;;;;;;5.60;4.63;;;;;;;16.77;91.59;96318.19;6045910;23;20340;-94
2021/08/11 01:14:10;;;;;;;6.60;4.90;;;;;;;16.15;91.52;96240.69;6045591;23;20132;-92
2021/08/11 01:16:36;;;;;;;5.68;4.57;;;;;;;16.35;91.86;96261.63;6045519;23;20002;-93
2021/08/11 01:19:01;;;;;;;5.97;3.95;;;;;;;16.42;91.43;96266.63;6046086;23;20011;-93
2021/08/11 01:21:38;;;;;;;5.63;4.10;;;;;;;16.22;90.68;96240.94;6045685;23;20079;-93
2021/08/11 01:24:20;;;;;;;4.35;3.67;;;;;;;16.46;90.49;96291.78;6045445;23;20007;-94
2021/08/11 01:27:01;;;;;;;6.90;4.10;;;;;;;16.61;91.32;96321.66;6069679;23;20007;-93
2021/08/11 01:29:42;;;;;;;5.78;4.40;;;;;;;16.55;91.29;96331.88;6069436;23;20015;-92
2021/08/11 01:32:22;;;;;;;11.00;4.80;;;;;;;16.18;92.26;96276.06;6069033;23;20031;-93
2021/08/11 01:34:51;;;;;;;5.88;4.60;;;;;;;15.96;91.82;96249.38;6045208;23;20089;-94
2021/08/11 01:37:27;;;;;;;5.47;4.95;;;;;;;16.12;93.02;96258.13;6046018;23;20007;-93
2021/08/11 01:39:57;;;;;;;5.25;4.75;;;;;;;16.29;92.10;96291.75;6045468;23;20432;-93
2021/08/11 01:42:30;;;;;;;8.17;4.67;;;;;;;16.31;92.71;96299.50;6045865;23;20018;-93
2021/08/11 01:44:59;;;;;;;6.25;4.70;;;;;;;16.47;91.98;96317.94;6045963;23;20010;-94
2021/08/11 01:47:29;;;;;;;6.60;3.92;;;;;;;16.47;91.17;96321.44;6071326;23;20014;-93
2021/08/11 01:49:56;;;;;;;4.65;3.67;;;;;;;15.98;91.32;96259.88;6069939;23;20014;-93
2021/08/11 01:52:22;;;;;;;6.95;4.15;;;;;;;16.05;91.99;96275.06;6045414;23;20007;-92
2021/08/11 01:54:49;;;;;;;6.97;4.20;;;;;;;15.98;92.09;96277.03;6045916;23;20015;-93
2021/08/11 01:57:15;;;;;;;7.55;3.65;;;;;;;16.09;91.46;96298.22;6045349;23;20037;-93
2021/08/11 01:59:42;;;;;;;6.40;3.92;;;;;;;16.19;91.43;96329.63;6045136;23;20488;-92
2021/08/11 02:02:12;;;;;;;7.05;4.13;;;;;;;15.71;92.64;96256.56;6045068;23;20006;-93
2021/08/11 02:04:38;;;;;;;7.32;4.90;;;;;;;15.84;92.35;96271.78;6045213;23;20006;-93
2021/08/11 02:07:04;;;;;;;6.03;4.68;;;;;;;15.89;92.14;96292.94;6045065;23;20011;-93
2021/08/11 02:09:31;;;;;;;7.90;4.85;;;;;;;16.11;92.74;96314.16;6045042;23;20014;-93
2021/08/11 02:11:58;;;;;;;6.15;4.53;;;;;;;15.90;92.27;96308.13;6045201;23;20034;-92
2021/08/11 02:14:24;;;;;;;6.63;5.00;;;;;;;15.48;93.01;96232.31;6044895;23;20010;-94
2021/08/11 02:16:49;;;;;;;7.80;5.15;;;;;;;15.80;92.91;96279.47;6045623;23;20508;-92
2021/08/11 02:19:15;;;;;;;8.05;4.75;;;;;;;15.63;93.42;96263.00;6044789;23;20011;-92
2021/08/11 02:21:41;;;;;;;10.43;4.55;;;;;;;15.83;92.13;96301.16;6045305;23;20010;-93
2021/08/11 02:24:10;;;;;;;7.28;5.25;;;;;;;16.02;93.86;96328.81;6044808;23;20068;-94
2021/08/11 02:26:49;;;;;;;9.15;5.00;;;;;;;16.02;93.29;96334.28;6044756;23;20097;-92
2021/08/11 02:29:55;;;;;;;9.00;5.13;;;;;;;15.98;93.37;96342.03;6044923;23;20086;-92
2021/08/11 02:32:35;;;;;;;7.82;4.80;;;;;;;15.52;93.48;96282.09;6028258;23;20391;-93
2021/08/11 02:35:18;;;;;;;6.10;5.27;;;;;;;15.89;93.30;96342.22;6098086;23;20013;-93
2021/08/11 02:38:01;;;;;;;6.72;4.45;;;;;;;15.92;93.03;96343.97;6073363;23;20014;-92
2021/08/11 02:40:41;;;;;;;7.20;4.63;;;;;;;15.94;94.25;96347.72;6073477;23;20002;-93
2021/08/11 02:43:12;;;;;;;6.47;4.47;;;;;;;15.65;93.61;96307.03;6073372;23;20057;-92
2021/08/11 02:45:40;;;;;;;5.25;4.28;;;;;;;15.52;94.56;96304.00;6097706;23;20010;-92
2021/08/11 02:48:07;;;;;;;5.45;4.15;;;;;;;15.61;93.93;96306.53;6073533;23;20007;-93
2021/08/11 02:50:36;;;;;;;6.22;4.55;;;;;;;15.75;94.19;96346.66;6097307;23;20018;-93
2021/08/11 02:53:02;;;;;;;5.95;4.43;;;;;;;15.73;94.80;96334.72;6097320;23;20013;-92
2021/08/11 02:55:29;;;;;;;5.68;4.43;;;;;;;15.46;93.60;96312.19;6073446;23;20022;-93
2021/08/11 02:57:56;;;;;;;6.63;4.45;;;;;;;15.16;94.01;96266.03;6073381;23;20012;-93
2021/08/11 03:00:21;;;;;;;8.80;4.45;;;;;;;15.11;94.11;96266.00;6073820;23;20340;-92
2021/08/11 03:02:48;;;;;;;7.35;5.00;;;;;;;15.18;93.98;96288.19;6073983;23;20098;-93
2021/08/11 03:05:15;;;;;;;5.78;4.80;;;;;;;15.76;95.35;96361.84;6073334;23;20325;-94
2021/08/11 03:07:43;;;;;;;8.90;4.53;;;;;;;15.42;94.47;96309.66;6097428;23;20030;-92
2021/08/11 03:10:09;;;;;;;9.85;4.75;;;;;;;15.16;94.30;96290.63;6073284;23;20010;-93
2021/08/11 03:12:36;;;;;;;9.07;4.68;;;;;;;15.37;94.93;96309.66;6073371;23;20007;-94
2021/08/11 03:15:05;;;;;;;7.25;4.32;;;;;;;15.00;94.69;96261.22;6073444;23;20344;-94
2021/08/11 03:17:30;;;;;;;9.52;4.60;;;;;;;15.43;95.04;96313.91;6073120;23;20124;-92
2021/08/11 03:19:56;;;;;;;9.93;5.32;;;;;;;15.33;93.55;96320.06;6097264;23;20014;-93
2021/08/11 03:22:22;;;;;;;12.50;5.00;;;;;;;15.30;94.18;96310.13;6073680;23;20452;-94
2021/08/11 03:24:48;;;;;;;10.88;4.80;;;;;;;15.26;95.64;96304.88;6097223;23;20036;-92
2021/08/11 03:27:13;;;;;;;8.80;4.80;;;;;;;15.02;94.40;96275.16;6096289;23;20070;-92
2021/08/11 03:29:39;;;;;;;7.00;4.45;;;;;;;15.42;94.61;96308.91;6097151;23;20060;-93
2021/08/11 03:32:04;;;;;;;7.72;4.53;;;;;;;15.26;93.46;96312.31;6072728;23;20019;-92
2021/08/11 03:34:30;;;;;;;5.80;4.32;;;;;;;15.42;94.35;96326.09;6097033;23;20335;-93
2021/08/11 03:36:56;;;;;;;5.65;4.30;;;;;;;15.57;93.84;96368.97;6072990;23;20010;-94
2021/08/11 03:39:22;;;;;;;6.85;4.50;;;;;;;15.31;94.46;96320.56;6073195;23;20436;-93
2021/08/11 03:41:47;;;;;;;7.65;4.47;;;;;;;15.13;94.04;96307.28;6097312;23;20066;-93
2021/08/11 03:44:13;;;;;;;6.68;4.88;;;;;;;15.14;94.71;96304.06;6097016;23;20085;-93
2021/08/11 03:46:39;;;;;;;7.38;4.13;;;;;;;15.00;94.36;96290.53;6073235;23;20018;-93
2021/08/11 03:49:08;;;;;;;8.98;4.85;;;;;;;15.11;94.02;96309.75;6072786;23;20009;-94
2021/08/11 03:51:34;;;;;;;9.73;5.00;;;;;;;15.32;94.83;96337.72;6073890;23;20400;-93
2021/08/11 03:53:59;;;;;;;5.90;4.60;;;;;;;15.13;94.60;96318.97;6097166;23;20013;-93
2021/08/11 03:56:24;;;;;;;6.78;4.53;;;;;;;15.11;95.12;96304.28;6072948;23;20006;-94
2021/08/11 03:58:57;;;;;;;7.53;4.53;;;;;;;15.18;95.08;96329.22;6073041;23;20002;-93
2021/08/11 04:01:22;;;;;;;5.65;4.72;;;;;;;15.23;95.09;96330.44;6073575;23;20014;-93
2021/08/11 04:03:47;;;;;;;7.15;5.00;;;;;;;15.37;95.43;96351.44;6072693;23;20538;-93
2021/08/11 04:06:13;;;;;;;7.22;4.97;;;;;;;15.54;95.18;96361.72;6072964;23;20499;-93
2021/08/11 04:08:39;;;;;;;8.13;4.65;;;;;;;15.03;94.37;96295.06;6072838;23;20089;-93
2021/08/11 04:11:05;;;;;;;8.57;5.05;;;;;;;15.34;95.19;96338.75;6072830;23;20029;-92
2021/08/11 04:13:30;;;;;;;7.38;4.80;;;;;;;15.45;95.15;96346.25;6072822;23;20006;-92
2021/08/11 04:15:56;;;;;;;10.43;4.57;;;;;;;15.61;94.16;96361.28;6072693;23;20013;-93
2021/08/11 04:18:21;;;;;;;8.05;4.80;;;;;;;15.36;94.02;96319.09;6072738;23;20010;-93
2021/08/11 04:21:02;;;;;;;7.95;4.72;;;;;;;15.77;94.64;96379.78;6073206;23;20440;-96
2021/08/11 04:23:30;;;;;;;10.25;4.45;;;;;;;15.39;93.56;96331.78;6110402;23;20030;-96
2021/08/11 04:25:56;;;;;;;6.57;4.38;;;;;;;15.26;93.71;96317.81;6084144;23;20081;-95
2021/08/11 04:28:22;;;;;;;7.35;4.38;;;;;;;15.26;94.63;96320.53;6075722;23;20011;-96
2021/08/11 04:30:47;;;;;;;7.30;4.30;;;;;;;15.19;93.97;96311.56;6098852;23;20034;-96
2021/08/11 04:33:13;;;;;;;9.43;4.63;;;;;;;15.35;94.46;96334.03;6075814;23;20015;-96
2021/08/11 04:35:40;;;;;;;8.10;4.25;;;;;;;15.28;94.99;96329.75;6072078;23;20086;-96
2021/08/11 04:38:08;;;;;;;7.07;4.78;;;;;;;15.30;94.36;96326.53;6049593;23;20432;-96
2021/08/11 04:40:39;;;;;;;10.00;4.80;;;;;;;14.94;95.99;96268.63;6056656;23;20010;-96
2021/08/11 04:43:08;;;;;;;7.78;5.07;;;;;;;14.80;94.80;96247.66;6074707;23;20006;-96
2021/08/11 04:45:40;;;;;;;9.40;5.30;;;;;;;14.90;93.77;96254.44;6071332;23;20063;-96
2021/08/11 04:48:05;;;;;;;6.65;5.65;;;;;;;15.03;95.41;96254.78;6072844;23;20002;-96
2021/08/11 04:50:31;;;;;;;7.13;5.25;;;;;;;15.04;94.34;96244.59;6071410;23;20013;-95
2021/08/11 04:52:57;;;;;;;7.70;5.97;;;;;;;15.66;94.92;96347.63;6044128;23;20034;-96
2021/08/11 04:55:22;;;;;;;10.55;6.20;;;;;;;15.41;94.47;96305.44;6067990;23;20355;-96
2021/08/11 04:57:48;;;;;;;7.22;6.45;;;;;;;16.07;93.04;96402.03;6068034;23;20101;-96
2021/08/11 05:00:14;;;;;;;9.50;6.80;;;;;;;15.68;94.25;96339.66;6068027;23;20050;-96
2021/08/11 05:02:40;;;;;;;11.15;7.10;;;;;;;15.75;93.24;96354.13;6044189;23;20085;-96
2021/08/11 05:05:06;;;;;;;10.57;7.50;;;;;;;15.95;93.49;96376.59;6049977;23;20006;-96
2021/08/11 05:07:32;;;;;;;9.38;7.63;;;;;;;15.96;93.40;96374.63;6048076;23;20018;-96
2021/08/11 05:09:58;;;;;;;9.27;7.15;;;;;;;15.72;93.99;96342.19;6046051;23;20006;-96
2021/08/11 05:12:24;;;;;;;11.27;6.88;;;;;;;15.88;93.38;96351.69;6069597;23;20026;-96
2021/08/11 05:14:51;;;;;;;11.07;6.40;;;;;;;15.73;93.82;96305.34;6045621;23;20034;-96
2021/08/11 05:17:22;;;;;;;8.85;6.30;;;;;;;15.79;92.62;96327.25;6045643;23;20066;-96
2021/08/11 05:19:51;;;;;;;;;;;;;;;16.34;92.91;96408.09;6046372;23;20003;-96
2021/08/11 05:22:18;;;;;;;8.40;7.05;;;;;;;16.43;93.75;96407.88;6070522;23;19916;-96
2021/08/11 05:24:44;;;;;;;9.00;6.53;;;;;;;16.29;93.20;96368.47;6070133;23;20385;-96
2021/08/11 05:27:10;;;;;;;10.10;6.50;;;;;;;16.23;92.86;96352.03;6069356;23;20003;-95
2021/08/11 05:29:36;;;;;;;8.10;6.50;;;;;;;16.30;91.28;96361.00;6046766;23;20021;-96
2021/08/11 05:32:02;;;;;;;10.20;6.15;;;;;;;16.47;92.02;96370.75;6061214;23;20015;-96
2021/08/11 05:34:28;;;;;;;13.18;6.00;;;;;;;16.33;91.82;96344.31;6072774;23;20018;-96
2021/08/11 05:36:56;;;;;;;11.00;6.05;;;;;;;16.52;92.58;96372.03;6072196;23;20021;-96
2021/08/11 05:39:22;;;;;;;8.75;6.00;;;;;;;15.88;91.86;96270.28;6071644;23;20034;-96
2021/08/11 05:41:47;;;;;;;8.32;5.78;;;;;;;16.76;91.91;96391.50;6069432;23;19998;-96
2021/08/11 05:44:13;;;;;;;7.60;5.80;;;;;;;16.28;90.49;96327.88;6070053;23;20093;-96
2021/08/11 05:46:38;;;;;;;7.60;6.07;;;;;;;16.33;92.03;96329.88;6070413;23;20011;-96
2021/08/11 05:49:05;;;;;;;10.65;6.07;;;;;;;16.84;91.22;96397.25;6069625;23;20031;-96
2021/08/11 05:51:34;;;;;;;12.85;5.50;;;;;;;16.91;90.74;96399.47;6069564;23;20002;-96
2021/08/11 05:54:05;;;;;;;9.85;6.45;;;;;;;16.93;91.80;96402.47;6069411;23;20440;-96
2021/08/11 05:56:31;;;;;;;9.18;6.22;;;;;;;16.65;92.76;96375.00;6069542;23;20440;-96
2021/08/11 05:58:56;;;;;;;9.00;6.80;;;;;;;16.54;90.99;96347.59;6069583;23;20010;-96
2021/08/11 06:01:23;;;;;;;10.10;6.72;;;;;;;16.59;91.25;96352.34;6069805;23;20036;-96
2021/08/11 06:03:52;;;;;;;8.35;6.65;;;;;;;16.57;91.87;96351.34;6069062;23;20015;-96
2021/08/11 06:06:17;;;;;;;8.73;6.40;;;;;;;16.71;90.96;96370.31;6069058;23;20019;-96
2021/08/11 06:08:42;;;;;;;10.43;7.40;;;;;;;16.61;92.97;96360.03;6069158;23;20006;-96
2021/08/11 06:11:08;;;;;;;11.10;7.30;;;;;;;16.71;92.58;96372.31;6069013;23;20098;-96
2021/08/11 06:13:33;;;;;;;11.55;7.57;;;;;;;16.56;92.56;96331.38;6069038;23;20011;-96
2021/08/11 06:15:59;;;;;;;10.13;8.00;;;;;;;16.86;91.91;96363.84;6068549;23;20400;-96
2021/08/11 06:18:24;;;;;;;10.73;8.13;;;;;;;16.66;91.90;96320.94;6068985;23;20007;-96
2021/08/11 06:20:53;;;;;;;11.82;8.52;;;;;;;16.95;92.94;96361.59;6069212;23;20011;-96
2021/08/11 06:23:19;;;;;;;19.20;9.73;;;;;;;16.92;90.91;96359.84;6069525;23;20176;-96
2021/08/11 06:25:45;;;;;;;14.32;9.88;;;;;;;17.05;91.16;96364.81;6069588;23;20007;-96
2021/08/11 06:28:11;;;;;;;13.80;10.35;;;;;;;17.08;91.12;96358.31;6068835;23;20090;-96
2021/08/11 06:30:36;;;;;;;14.88;11.52;;;;;;;16.94;90.90;96321.69;6069128;23;20425;-96
2021/08/11 06:33:02;;;;;;;15.05;11.82;;;;;;;17.19;90.75;96349.31;6069968;23;20073;-96
2021/08/11 06:35:28;;;;;;;13.98;11.40;;;;;;;17.12;91.92;96328.66;6045679;23;20013;-96
2021/08/11 06:37:54;;;;;;;14.25;9.60;;;;;;;17.45;88.95;96368.25;6045332;23;20013;-96
2021/08/11 06:40:21;;;;;;;11.48;9.10;;;;;;;17.15;90.46;96319.41;6069058;23;20014;-96
2021/08/11 06:42:47;;;;;;;12.20;9.38;;;;;;;17.54;90.64;96376.94;6048291;23;20007;-96
2021/08/11 06:45:14;;;;;;;14.27;9.77;;;;;;;16.81;90.75;96252.88;6052721;23;19998;-96
2021/08/11 06:51:01;;;;;;;14.43;9.25;;;;;;;17.42;89.92;96314.38;6081144;23;20014;-96
2021/08/11 06:53:27;;;;;;;12.90;9.05;;;;;;;17.31;87.83;96284.19;6058531;23;20007;-96
2021/08/11 06:55:53;;;;;;;11.00;8.60;;;;;;;17.52;87.79;96310.84;6083313;23;20003;-96
2021/08/11 06:58:25;;;;;;;10.38;8.23;;;;;;;17.54;88.38;96307.56;6082735;23;20015;-96
2021/08/11 07:00:52;;;;;;;10.07;7.35;;;;;;;17.22;87.84;96252.28;6058444;23;20012;-96
2021/08/11 07:03:21;;;;;;;11.70;8.50;;;;;;;18.07;87.72;96368.78;6059328;23;20011;-96
2021/08/11 07:05:48;;;;;;;10.52;7.63;;;;;;;17.86;88.04;96331.94;6082920;23;20381;-96
2021/08/11 07:08:13;;;;;;;14.57;7.97;;;;;;;17.29;87.58;96251.75;6052968;23;20515;-96
2021/08/11 07:10:39;;;;;;;12.55;7.35;;;;;;;17.38;88.25;96259.72;6048434;23;20093;-96
2021/08/11 07:13:05;;;;;;;12.30;7.72;;;;;;;17.44;88.69;96265.19;6048225;23;20011;-96
2021/08/11 07:15:32;;;;;;;9.85;7.60;;;;;;;17.90;88.14;96319.44;6049357;23;20002;-96
2021/08/11 07:17:57;;;;;;;8.57;6.95;;;;;;;17.45;86.32;96248.19;6047819;23;20340;-96
2021/08/11 07:20:27;;;;;;;9.32;7.13;;;;;;;18.26;86.79;96366.19;6047871;23;20007;-96
2021/08/11 07:22:55;;;;;;;10.63;7.75;;;;;;;17.62;85.96;96261.09;6072603;23;20086;-96
2021/08/11 07:25:21;;;;;;;9.65;6.90;;;;;;;17.57;87.21;96246.16;6045338;23;20003;-96
2021/08/11 07:27:46;;;;;;;9.75;7.20;;;;;;;18.15;87.16;96316.78;6069971;23;20007;-96
2021/08/11 07:30:13;;;;;;;11.25;7.32;;;;;;;18.11;84.91;96311.56;6074348;23;20409;-96
2021/08/11 07:32:39;;;;;;;10.52;7.00;;;;;;;18.40;84.95;96345.88;6058054;23;20030;-96
2021/08/11 07:35:06;;;;;;;9.20;7.40;;;;;;;18.04;84.41;96285.38;6071032;23;20003;-96
2021/08/11 07:37:31;;;;;;;9.60;6.80;;;;;;;18.14;85.73;96302.31;6070881;23;20011;-96
2021/08/11 07:39:57;;;;;;;9.30;6.75;;;;;;;18.26;86.02;96320.19;6072321;23;20054;-96
2021/08/11 07:42:25;;;;;;;8.70;5.90;;;;;;;18.12;85.23;96298.59;6072549;23;20333;-96
2021/08/11 07:44:51;;;;;;;10.95;7.40;;;;;;;18.00;83.62;96275.91;6071421;23;20007;-96
2021/08/11 07:47:16;;;;;;;11.52;6.65;;;;;;;17.98;85.89;96259.19;6069824;23;20006;-96
2021/08/11 07:49:42;;;;;;;11.82;6.57;;;;;;;17.94;86.56;96245.72;6070332;23;20010;-96
2021/08/11 07:52:07;;;;;;;8.82;6.30;;;;;;;18.23;83.30;96266.28;6071702;23;20009;-96
2021/08/11 07:54:33;;;;;;;9.90;6.47;;;;;;;18.23;83.30;96266.28;6073620;23;20007;-96
2021/08/11 07:56:59;;;;;;;7.63;6.07;;;;;;;18.86;82.60;96343.56;6070116;23;20015;-96
2021/08/11 07:59:24;;;;;;;7.68;5.65;;;;;;;18.50;100.00;88873.25;6069325;23;20078;-96
2021/08/11 08:01:50;;;;;;;8.32;5.97;;;;;;;18.49;83.34;96254.09;6069495;23;20010;-96
2021/08/11 08:04:15;;;;;;;9.32;6.35;;;;;;;18.89;100.00;88926.06;6069652;23;20013;-96
2021/08/11 08:06:41;;;;;;;6.68;5.30;;;;;;;19.19;82.34;96329.50;6069628;23;20127;-96
2021/08/11 08:09:06;;;;;;;7.97;5.22;;;;;;;19.56;82.00;96369.41;6069904;23;20018;-96
2021/08/11 08:11:33;;;;;;;11.70;6.72;;;;;;;19.60;80.73;96359.63;6069667;23;20013;-96
2021/08/11 08:13:59;;;;;;;10.50;5.43;;;;;;;19.60;80.73;96359.63;6071616;23;20014;-96
2021/08/11 08:16:24;;;;;;;6.38;4.40;;;;;;;19.40;76.32;96307.00;6070447;23;20515;-96
2021/08/11 08:18:50;;;;;;;4.97;4.20;;;;;;;19.40;76.32;96307.00;6070153;23;20017;-96
2021/08/11 08:21:15;;;;;;;8.15;4.70;;;;;;;19.40;76.32;96307.00;6070412;23;20058;-96
2021/08/11 08:23:41;;;;;;;8.48;4.45;;;;;;;19.67;74.50;96316.22;6071754;23;20002;-96
2021/08/11 08:26:07;;;;;;;5.53;4.13;;;;;;;19.67;74.50;96316.22;6073380;23;20436;-96
2021/08/11 08:28:32;;;;;;;4.15;3.40;;;;;;;19.75;65.45;96320.63;6072790;23;20488;-96
2021/08/11 08:30:58;;;;;;;3.88;3.33;;;;;;;19.80;66.43;96317.06;6073172;23;20305;-96
2021/08/11 08:33:23;;;;;;;6.10;3.28;;;;;;;19.83;66.49;96291.22;6069158;23;20019;-96
2021/08/11 08:35:49;;;;;;;3.72;3.33;;;;;;;20.09;62.30;96309.19;6069147;23;20401;-96
2021/08/11 08:38:14;;;;;;;7.15;3.35;;;;;;;20.54;69.21;96353.41;6069460;23;20091;-96
2021/08/11 08:40:41;;;;;;;5.35;3.00;;;;;;;20.08;65.82;96280.88;6070677;23;20428;-96
2021/08/11 08:43:07;;;;;;;5.75;3.50;;;;;;;20.46;58.03;96318.69;6070370;23;20009;-96
2021/08/11 08:45:34;;;;;;;3.75;3.35;;;;;;;20.70;59.33;96334.38;6072091;23;20003;-96
2021/08/11 08:48:02;;;;;;;7.10;3.58;;;;;;;20.96;58.89;96355.78;6070301;23;20014;-96
2021/08/11 08:50:27;;;;;;;3.75;3.17;;;;;;;20.79;57.06;96311.91;6070437;23;20006;-96
2021/08/11 08:52:53;;;;;;;5.65;2.92;;;;;;;21.19;57.83;96354.13;6070030;23;20495;-96
2021/08/11 08:55:19;;;;;;;5.43;3.85;;;;;;;21.09;56.35;96337.25;6070042;23;20017;-96
2021/08/11 08:57:45;;;;;;;4.90;3.22;;;;;;;20.99;51.80;96307.81;6071928;23;20010;-96
2021/08/11 09:00:11;;;;;;;3.78;2.90;;;;;;;21.40;55.38;96359.78;6071427;23;20085;-96
2021/08/11 09:02:38;;;;;;;4.88;3.40;;;;;;;21.56;52.28;96360.75;6073036;23;20006;-96
2021/08/11 09:05:06;;;;;;;3.95;3.10;;;;;;;21.61;52.28;96366.19;6072532;23;20016;-96
2021/08/11 09:07:32;;;;;;;5.28;3.08;;;;;;;21.70;52.71;96370.53;6070904;23;20058;-96
2021/08/11 09:09:58;;;;;;;4.22;3.25;;;;;;;21.76;51.55;96365.66;6071139;23;20011;-96
2021/08/11 09:12:23;;;;;;;4.85;3.08;;;;;;;21.64;56.05;96334.75;6070265;23;20011;-96
2021/08/11 09:14:51;;;;;;;5.13;3.47;;;;;;;21.76;53.71;96356.63;6070499;23;20130;-96
2021/08/11 09:17:36;;;;;;;3.88;3.08;;;;;;;21.68;51.95;96360.03;6070313;23;20007;-96
2021/08/11 09:20:05;;;;;;;4.47;3.08;;;;;;;21.56;51.82;96342.16;6070671;23;20007;-96
2021/08/11 09:22:48;;;;;;;4.47;3.30;;;;;;;21.57;51.20;96335.38;6071042;23;20007;-96
2021/08/11 09:25:14;;;;;;;3.75;3.13;;;;;;;21.64;52.44;96342.28;6071540;23;20444;-96
2021/08/11 09:27:42;;;;;;;4.25;3.20;;;;;;;21.88;50.30;96355.84;6071358;23;20009;-96
2021/08/11 09:30:17;;;;;;;4.05;3.22;;;;;;;22.02;47.48;96353.09;6070880;23;20070;-96
2021/08/11 09:32:51;;;;;;;4.10;2.90;;;;;;;22.18;49.92;96374.88;6087747;23;20026;-96
2021/08/11 09:35:27;;;;;;;3.75;2.97;;;;;;;22.13;49.28;96344.56;6078790;23;20386;-96
2021/08/11 09:37:55;;;;;;;4.80;3.33;;;;;;;22.41;48.38;96357.78;6099668;23;20006;-96
2021/08/11 09:40:26;;;;;;;4.05;3.28;;;;;;;22.58;52.63;96366.44;6076031;23;20003;-96
2021/08/11 09:42:54;;;;;;;5.22;2.83;;;;;;;22.54;45.84;96349.44;6076746;23;20007;-96
2021/08/11 09:45:20;;;;;;;4.70;3.20;;;;;;;22.61;50.17;96340.47;6100077;23;20022;-95
2021/08/11 09:47:58;;;;;;;5.40;3.10;;;;;;;22.89;44.68;96364.00;6075113;23;20057;-96
2021/08/11 09:50:35;;;;;;;4.00;3.10;;;;;;;22.94;48.48;96361.09;6074606;23;20013;-96
2021/08/11 09:53:01;;;;;;;3.70;2.88;;;;;;;22.86;47.35;96356.75;6074925;23;20053;-96
2021/08/11 09:55:26;;;;;;;4.50;3.00;;;;;;;22.90;46.85;96357.91;6074815;23;20011;-96
2021/08/11 09:57:52;;;;;;;3.88;3.08;;;;;;;22.64;45.98;96333.88;6074924;23;20089;-96
2021/08/11 10:00:17;;;;;;;4.82;3.42;;;;;;;22.68;49.58;96309.34;6074494;23;20084;-96
2021/08/11 10:02:44;;;;;;;4.75;3.40;;;;;;;22.64;48.91;96305.47;6075520;23;20002;-96
2021/08/11 10:05:36;;;;;;;3.35;3.03;;;;;;;23.00;48.51;96367.22;6074547;23;20010;-96
2021/08/11 10:08:02;;;;;;;3.72;3.08;;;;;;;22.93;48.16;96362.38;6074874;23;20013;-96
2021/08/11 10:10:28;;;;;;;4.03;3.17;;;;;;;22.94;48.06;96358.31;6074551;23;20015;-96
2021/08/11 10:12:54;;;;;;;6.00;2.95;;;;;;;23.00;47.51;96367.22;6074402;23;20034;-96
2021/08/11 10:15:20;;;;;;;4.25;3.15;;;;;;;22.99;48.67;96348.41;6074350;23;20407;-96
2021/08/11 10:17:49;;;;;;;4.00;2.90;;;;;;;22.77;47.32;96288.78;6098663;23;20070;-96
2021/08/11 10:20:19;;;;;;;3.35;2.92;;;;;;;23.11;45.97;96329.47;6075505;23;20034;-96
2021/08/11 10:22:45;;;;;;;3.95;3.03;;;;;;;23.46;43.55;96358.53;6075668;23;20014;-96
2021/08/11 10:25:11;;;;;;;3.17;2.72;;;;;;;23.45;44.79;96345.97;6074396;23;20417;-96
2021/08/11 10:27:41;;;;;;;4.20;3.05;;;;;;;23.69;43.29;96350.38;6074442;23;20018;-96
2021/08/11 10:30:08;;;;;;;4.57;2.92;;;;;;;23.80;47.52;96341.75;6075297;23;20006;-95
2021/08/11 10:32:35;;;;;;;3.42;3.10;;;;;;;23.60;49.00;96293.41;6094311;23;20023;-95
2021/08/11 10:35:02;;;;;;;5.05;2.90;;;;;;;23.82;47.78;96305.91;6070188;23;20035;-94
2021/08/11 10:37:28;;;;;;;4.88;3.10;;;;;;;24.19;48.00;96348.97;6069182;23;20058;-96
2021/08/11 10:39:53;;;;;;;3.78;2.78;;;;;;;24.07;47.60;96311.00;6070548;23;20014;-96
2021/08/11 10:42:19;;;;;;;5.03;2.70;;;;;;;24.07;48.84;96281.22;6076868;23;20014;-95
2021/08/11 10:44:46;;;;;;;4.68;3.40;;;;;;;24.57;55.02;96334.47;6069754;23;20369;-95
2021/08/11 10:47:13;;;;;;;3.80;2.53;;;;;;;24.31;45.31;96293.88;6069279;23;20451;-94
2021/08/11 10:49:55;;;;;;;3.50;2.83;;;;;;;24.74;45.59;96329.13;6069121;23;20119;-94
2021/08/11 10:52:21;;;;;;;4.88;3.00;;;;;;;24.77;50.81;96311.38;6069555;23;20003;-96
2021/08/11 10:54:51;;;;;;;9.02;3.40;;;;;;;25.16;49.59;96337.13;6069546;23;20007;-95
2021/08/11 10:57:35;;;;;;;3.78;2.88;;;;;;;25.34;48.92;96333.19;6069520;23;20011;-94
2021/08/11 11:00:05;;;;;;;5.22;3.17;;;;;;;25.33;51.58;96339.31;6069486;23;20035;-94
2021/08/11 11:02:40;;;;;;;3.88;2.80;;;;;;;25.21;48.32;96333.41;6069834;23;20443;-94
2021/08/11 11:05:19;;;;;;;4.00;3.10;;;;;;;24.86;44.69;96334.31;6045841;23;20093;-95
2021/08/11 11:08:11;;;;;;;6.28;3.20;;;;;;;24.73;51.80;96324.13;6071191;23;20432;-95
2021/08/11 11:10:44;;;;;;;3.63;2.83;;;;;;;24.17;44.65;96295.31;6069025;23;20007;-94
2021/08/11 11:13:32;;;;;;;5.07;3.03;;;;;;;24.28;44.45;96323.44;6069123;23;20432;-94
2021/08/11 11:15:59;;;;;;;5.82;3.28;;;;;;;24.27;46.89;96299.03;6069096;23;20437;-94
2021/08/11 11:18:25;;;;;;;3.85;3.03;;;;;;;24.49;47.83;96317.06;6068667;23;20334;-94
2021/08/11 11:20:57;;;;;;;3.88;3.00;;;;;;;24.17;44.12;96279.41;6068951;23;20396;-94
2021/08/11 11:23:33;;;;;;;4.40;3.13;;;;;;;24.48;48.98;96332.97;6069087;23;20014;-94
2021/08/11 11:26:05;;;;;;;4.88;3.22;;;;;;;24.30;45.63;96331.25;6069000;23;20365;-94
2021/08/11 11:28:53;;;;;;;4.47;2.90;;;;;;;24.29;43.49;96338.09;6069534;23;20432;-95
2021/08/11 11:31:35;;;;;;;3.75;2.80;;;;;;;24.13;47.37;96337.28;6069134;23;20011;-94
2021/08/11 11:34:25;;;;;;;4.90;3.70;;;;;;;24.14;49.69;96340.81;6069468;23;20015;-94
2021/08/11 11:36:56;;;;;;;7.32;3.50;;;;;;;24.08;51.26;96349.28;6068991;23;20017;-95
2021/08/11 11:39:27;;;;;;;4.43;3.45;;;;;;;24.04;49.02;96338.53;6074582;23;20013;-96